Time;durP1;ratioP1;P1;durP2;ratioP2;P2;SDS_P1;SDS_P2;PMS_P1;PMS_P2;Temp;Humidity;BMP_temperature;BMP_pressure;BME280_temperature;BME280_humidity;BME280_pressure;Samples;Min_cycle;Max_cycle;Signal;HPM_P1;HPM_P2
2023/11/18 00:00:50;;;;;;;;;;;;;;;;;;4983565;28;19914;-78
2023/11/18 00:03:16;;;;;;;;;;;;;;;;;;4994895;28;20396;-78
2023/11/18 00:05:42;;;;;;;;;;;;;;;;;;4979521;28;20052;-80
2023/11/18 00:08:07;;;;;;;;;;;;;;;;;;4995910;28;19921;-78
2023/11/18 00:10:32;;;;;;;;;;;;;;;;;;4997388;28;19918;-78
2023/11/18 00:12:58;;;;;;;;;;;;;;;;;;4997191;28;19980;-78
2023/11/18 00:15:24;;;;;;;;;;;;;;;;;;4997183;28;19973;-77
2023/11/18 00:17:49;;;;;;;;;;;;;;;;;;4980384;28;19961;-79
2023/11/18 00:20:18;;;;;;;;;;;;;;;;;;4997279;28;19914;-79
2023/11/18 00:22:44;;;;;;;;;;;;;;;;;;4995338;28;20291;-79
2023/11/18 00:25:10;;;;;;;;;;;;;;;;;;4995897;28;20012;-79
2023/11/18 00:27:36;;;;;;;;;;;;;;;;;;4997749;28;19913;-78
2023/11/18 00:30:02;;;;;;;;;;;;;;;;;;4999200;28;20014;-80
2023/11/18 00:32:31;;;;;;;;;;;;;;;;;;5000753;28;19948;-78
2023/11/18 00:34:56;;;;;;;;;;;;;;;;;;4999242;28;19910;-79
2023/11/18 00:37:23;;;;;;;;;;;;;;;;;;4996756;28;19914;-78
2023/11/18 00:39:49;;;;;;;;;;;;;;;;;;4997232;28;19920;-79
2023/11/18 00:42:15;;;;;;;;;;;;;;;;;;4995912;28;19914;-78
2023/11/18 00:44:41;;;;;;;;;;;;;;;;;;5000311;28;19960;-79
2023/11/18 00:47:06;;;;;;;;;;;;;;;;;;4985875;28;19911;-79
2023/11/18 00:49:33;;;;;;;;;;;;;;;;;;5016780;28;19910;-78
2023/11/18 00:51:59;;;;;;;;;;;;;;;;;;5000806;28;19924;-78
2023/11/18 00:54:25;;;;;;;;;;;;;;;;;;5016821;28;19902;-78
2023/11/18 00:56:51;;;;;;;;;;;;;;;;;;5017196;28;19902;-79
2023/11/18 00:59:16;;;;;;;;;;;;;;;;;;5017193;28;19961;-79
2023/11/18 01:01:42;;;;;;;;;;;;;;;;;;5014664;28;19960;-80
2023/11/18 01:04:08;;;;;;;;;;;;;;;;;;5001339;28;19914;-79
2023/11/18 01:06:34;;;;;;;;;;;;;;;;;;4997203;28;20455;-79
2023/11/18 01:09:01;;;;;;;;;;;;;;;;;;4996682;28;19996;-79
2023/11/18 01:11:26;;;;;;;;;;;;;;;;;;4994793;28;19922;-79
2023/11/18 01:13:54;;;;;;;;;;;;;;;;;;4996416;28;19918;-78
2023/11/18 01:16:19;;;;;;;;;;;;;;;;;;5011797;28;20628;-79
2023/11/18 01:18:45;;;;;;;;;;;;;;;;;;4995580;28;19914;-77
2023/11/18 01:21:11;;;;;;;;;;;;;;;;;;4995440;28;20493;-79
2023/11/18 01:23:37;;;;;;;;;;;;;;;;;;4997517;28;19926;-79
2023/11/18 01:26:05;;;;;;;;;;;;;;;;;;4996055;28;19933;-78
2023/11/18 01:28:32;;;;;;;;;;;;;;;;;;4996224;28;19928;-78
2023/11/18 01:30:59;;;;;;;;;;;;;;;;;;4993923;28;19924;-78
2023/11/18 01:33:25;;;;;;;;;;;;;;;;;;4994890;28;19910;-79
2023/11/18 01:35:50;;;;;;;;;;;;;;;;;;4980536;28;20029;-79
2023/11/18 01:38:20;;;;;;;;;;;;;;;;;;5001453;28;19968;-79
2023/11/18 01:40:45;;;;;;;;;;;;;;;;;;5000767;28;19980;-79
2023/11/18 01:43:13;;;;;;;;;;;;;;;;;;4999962;28;20377;-79
2023/11/18 01:45:41;;;;;;;;;;;;;;;;;;5001792;28;19925;-78
2023/11/18 01:48:07;;;;;;;;;;;;;;;;;;4983185;28;19958;-78
2023/11/18 01:50:32;;;;;;;;;;;;;;;;;;4995045;28;19918;-79
2023/11/18 01:52:57;;;;;;;;;;;;;;;;;;4988251;28;19914;-78
2023/11/18 01:55:23;;;;;;;;;;;;;;;;;;4981583;28;19910;-77
2023/11/18 01:57:50;;;;;;;;;;;;;;;;;;5002323;28;19913;-78
2023/11/18 02:00:17;;;;;;;;;;;;;;;;;;4999398;28;19910;-77
2023/11/18 02:02:43;;;;;;;;;;;;;;;;;;4999004;28;19946;-78
2023/11/18 02:05:11;;;;;;;;;;;;;;;;;;4998533;28;19925;-78
2023/11/18 02:07:38;;;;;;;;;;;;;;;;;;5002738;28;19934;-79
2023/11/18 02:10:08;;;;;;;;;;;;;;;;;;5001684;28;19929;-79
2023/11/18 02:12:34;;;;;;;;;;;;;;;;;;4999084;28;19918;-79
2023/11/18 02:15:00;;;;;;;;;;;;;;;;;;5000796;28;20056;-79
2023/11/18 02:17:26;;;;;;;;;;;;;;;;;;4982631;28;19914;-79
2023/11/18 02:19:55;;;;;;;;;;;;;;;;;;4997785;28;19917;-79
2023/11/18 02:22:21;;;;;;;;;;;;;;;;;;4995314;28;19913;-78
2023/11/18 02:24:47;;;;;;;;;;;;;;;;;;4996685;28;20273;-78
2023/11/18 02:27:13;;;;;;;;;;;;;;;;;;4996876;28;19913;-78
2023/11/18 02:29:40;;;;;;;;;;;;;;;;;;4998597;28;19936;-77
2023/11/18 02:32:08;;;;;;;;;;;;;;;;;;4998185;28;19961;-77
2023/11/18 02:34:34;;;;;;;;;;;;;;;;;;4980673;28;19914;-78
2023/11/18 02:37:00;;;;;;;;;;;;;;;;;;4998300;28;20517;-78
2023/11/18 02:39:25;;;;;;;;;;;;;;;;;;4997454;28;19976;-78
2023/11/18 02:41:51;;;;;;;;;;;;;;;;;;4997539;28;20309;-77
2023/11/18 02:44:17;;;;;;;;;;;;;;;;;;4999491;28;20290;-78
2023/11/18 02:46:43;;;;;;;;;;;;;;;;;;4981101;28;19945;-78
2023/11/18 02:49:09;;;;;;;;;;;;;;;;;;4997166;28;19988;-79
2023/11/18 02:51:39;;;;;;;;;;;;;;;;;;5001928;28;20004;-78
2023/11/18 02:54:05;;;;;;;;;;;;;;;;;;5001507;28;20396;-78
2023/11/18 02:56:31;;;;;;;;;;;;;;;;;;5005349;28;19910;-78
2023/11/18 02:58:57;;;;;;;;;;;;;;;;;;5011770;28;19920;-77
2023/11/18 03:01:25;;;;;;;;;;;;;;;;;;5003234;28;20369;-78
2023/11/18 03:03:50;;;;;;;;;;;;;;;;;;5000294;28;19918;-78
2023/11/18 03:06:16;;;;;;;;;;;;;;;;;;4998676;28;20423;-79
2023/11/18 03:08:41;;;;;;;;;;;;;;;;;;4998435;28;19914;-79
2023/11/18 03:11:08;;;;;;;;;;;;;;;;;;4997282;28;20373;-78
2023/11/18 03:13:34;;;;;;;;;;;;;;;;;;4997097;28;19957;-79
2023/11/18 03:16:00;;;;;;;;;;;;;;;;;;4997095;28;19965;-79
2023/11/18 03:18:29;;;;;;;;;;;;;;;;;;4979687;28;19980;-76
2023/11/18 03:20:55;;;;;;;;;;;;;;;;;;4997711;28;20009;-78
2023/11/18 03:23:24;;;;;;;;;;;;;;;;;;4998109;28;19914;-79
2023/11/18 03:25:51;;;;;;;;;;;;;;;;;;4997502;28;20017;-79
2023/11/18 03:28:16;;;;;;;;;;;;;;;;;;4998560;28;19945;-77
2023/11/18 03:30:42;;;;;;;;;;;;;;;;;;4997078;28;20376;-80
2023/11/18 03:33:10;;;;;;;;;;;;;;;;;;4997358;28;19921;-78
2023/11/18 03:35:37;;;;;;;;;;;;;;;;;;4997492;28;19918;-78
2023/11/18 03:38:03;;;;;;;;;;;;;;;;;;4980785;28;19965;-79
2023/11/18 03:40:31;;;;;;;;;;;;;;;;;;4981059;28;21316;-78
2023/11/18 03:42:58;;;;;;;;;;;;;;;;;;4999335;28;19961;-78
2023/11/18 03:45:23;;;;;;;;;;;;;;;;;;4999660;28;19977;-78
2023/11/18 03:47:50;;;;;;;;;;;;;;;;;;5016562;28;19921;-79
2023/11/18 03:50:15;;;;;;;;;;;;;;;;;;5001065;28;19930;-79
2023/11/18 03:52:40;;;;;;;;;;;;;;;;;;4984328;28;19913;-78
2023/11/18 03:55:06;;;;;;;;;;;;;;;;;;5001678;28;19929;-78
2023/11/18 03:57:32;;;;;;;;;;;;;;;;;;5018657;28;20009;-78
2023/11/18 03:59:57;;;;;;;;;;;;;;;;;;5007768;28;19918;-79
2023/11/18 04:02:22;;;;;;;;;;;;;;;;;;5003384;28;19924;-78
2023/11/18 04:04:49;;;;;;;;;;;;;;;;;;4995638;28;19925;-78
2023/11/18 04:07:14;;;;;;;;;;;;;;;;;;4994577;28;20373;-79
2023/11/18 04:09:43;;;;;;;;;;;;;;;;;;4980059;28;19918;-77
2023/11/18 04:12:10;;;;;;;;;;;;;;;;;;4979621;28;19959;-78
2023/11/18 04:14:35;;;;;;;;;;;;;;;;;;4995466;28;19921;-78
2023/11/18 04:17:01;;;;;;;;;;;;;;;;;;4963180;28;20305;-78
2023/11/18 04:19:27;;;;;;;;;;;;;;;;;;4997145;28;20281;-78
2023/11/18 04:21:52;;;;;;;;;;;;;;;;;;4998565;28;19924;-78
2023/11/18 04:24:17;;;;;;;;;;;;;;;;;;4999392;28;19914;-79
2023/11/18 04:26:43;;;;;;;;;;;;;;;;;;4997916;28;19918;-79
2023/11/18 04:29:08;;;;;;;;;;;;;;;;;;4999051;28;19910;-78
2023/11/18 04:31:37;;;;;;;;;;;;;;;;;;4996343;28;19925;-78
2023/11/18 04:34:04;;;;;;;;;;;;;;;;;;4997864;28;20320;-79
2023/11/18 04:36:29;;;;;;;;;;;;;;;;;;4980764;28;19910;-78
2023/11/18 04:38:58;;;;;;;;;;;;;;;;;;4999170;28;19937;-77
2023/11/18 04:41:23;;;;;;;;;;;;;;;;;;4997014;28;19920;-79
2023/11/18 04:43:49;;;;;;;;;;;;;;;;;;4997723;28;19913;-78
2023/11/18 04:46:14;;;;;;;;;;;;;;;;;;4979124;28;19921;-78
2023/11/18 04:48:40;;;;;;;;;;;;;;;;;;4998651;28;20004;-78
2023/11/18 04:51:05;;;;;;;;;;;;;;;;;;4993411;28;19968;-78
2023/11/18 04:53:31;;;;;;;;;;;;;;;;;;4995600;28;19917;-79
2023/11/18 04:55:57;;;;;;;;;;;;;;;;;;4994470;28;20011;-78
2023/11/18 04:58:22;;;;;;;;;;;;;;;;;;4994379;28;19914;-78
2023/11/18 05:00:48;;;;;;;;;;;;;;;;;;4977985;28;19917;-78
2023/11/18 05:03:13;;;;;;;;;;;;;;;;;;4994464;28;19914;-79
2023/11/18 05:05:41;;;;;;;;;;;;;;;;;;4989999;23;19990;-76
2023/11/18 05:08:10;;;;;;;;;;;;;;;;;;4984812;28;19910;-77
2023/11/18 05:10:37;;;;;;;;;;;;;;;;;;4986655;28;19902;-77
2023/11/18 05:13:03;;;;;;;;;;;;;;;;;;4970253;28;19914;-77
2023/11/18 05:15:30;;;;;;;;;;;;;;;;;;4949591;29;19936;-75
2023/11/18 05:17:55;;;;;;;;;;;;;;;;;;4967821;28;20374;-76
2023/11/18 05:20:20;;;;;;;;;;;;;;;;;;4978019;28;19925;-77
2023/11/18 05:22:46;;;;;;;;;;;;;;;;;;4977323;28;19922;-76
2023/11/18 05:25:11;;;;;;;;;;;;;;;;;;4979482;28;19918;-77
2023/11/18 05:27:37;;;;;;;;;;;;;;;;;;4960017;29;19914;-77
2023/11/18 05:30:02;;;;;;;;;;;;;;;;;;4939312;29;20301;-77
2023/11/18 05:32:30;;;;;;;;;;;;;;;;;;4962722;29;19910;-76
2023/11/18 05:34:57;;;;;;;;;;;;;;;;;;4961476;29;20260;-77
2023/11/18 05:37:23;;;;;;;;;;;;;;;;;;4945190;29;20412;-76
2023/11/18 05:39:53;;;;;;;;;;;;;;;;;;4945701;29;19914;-77
2023/11/18 05:42:19;;;;;;;;;;;;;;;;;;4945593;29;19956;-77
2023/11/18 05:44:45;;;;;;;;;;;;;;;;;;4946740;29;19977;-76
2023/11/18 05:47:11;;;;;;;;;;;;;;;;;;4961583;29;19942;-76
2023/11/18 05:49:37;;;;;;;;;;;;;;;;;;4963117;29;20304;-75
2023/11/18 05:52:03;;;;;;;;;;;;;;;;;;4963798;28;19918;-76
2023/11/18 05:54:28;;;;;;;;;;;;;;;;;;4970732;29;19958;-75
2023/11/18 05:56:54;;;;;;;;;;;;;;;;;;4970273;29;19914;-76
2023/11/18 05:59:19;;;;;;;;;;;;;;;;;;4964852;29;20047;-76
2023/11/18 06:01:44;;;;;;;;;;;;;;;;;;4963418;28;20335;-76
2023/11/18 06:04:10;;;;;;;;;;;;;;;;;;4965275;29;19914;-76
2023/11/18 06:06:37;;;;;;;;;;;;;;;;;;4951318;29;19942;-76
2023/11/18 06:09:08;;;;;;;;;;;;;;;;;;4963709;29;19915;-76
2023/11/18 06:11:34;;;;;;;;;;;;;;;;;;4947887;29;19922;-75
2023/11/18 06:14:00;;;;;;;;;;;;;;;;;;4963685;28;19958;-77
2023/11/18 06:16:26;;;;;;;;;;;;;;;;;;4946470;29;19915;-76
2023/11/18 06:18:52;;;;;;;;;;;;;;;;;;4945944;29;19922;-76
2023/11/18 06:21:18;;;;;;;;;;;;;;;;;;4958346;28;20363;-77
2023/11/18 06:23:43;;;;;;;;;;;;;;;;;;4942464;29;20005;-77
2023/11/18 06:26:12;;;;;;;;;;;;;;;;;;4959231;29;19926;-76
2023/11/18 06:28:38;;;;;;;;;;;;;;;;;;4955201;29;19926;-77
2023/11/18 06:31:08;;;;;;;;;;;;;;;;;;4938409;29;19935;-76
2023/11/18 06:33:34;;;;;;;;;;;;;;;;;;4937836;29;19915;-77
2023/11/18 06:36:00;;;;;;;;;;;;;;;;;;4937283;29;19915;-75
2023/11/18 06:38:30;;;;;;;;;;;;;;;;;;4949747;29;19915;-76
2023/11/18 06:40:56;;;;;;;;;;;;;;;;;;4956673;28;19915;-75
2023/11/18 06:43:21;;;;;;;;;;;;;;;;;;4972240;28;19911;-75
2023/11/18 06:45:48;;;;;;;;;;;;;;;;;;4940709;29;20487;-75
2023/11/18 06:48:14;;;;;;;;;;;;;;;;;;4972233;28;19914;-77
2023/11/18 06:50:44;;;;;;;;;;;;;;;;;;4971709;28;19966;-76
2023/11/18 06:53:10;;;;;;;;;;;;;;;;;;4971476;28;20397;-77
2023/11/18 06:55:39;;;;;;;;;;;;;;;;;;4969987;28;20006;-76
2023/11/18 06:58:04;;;;;;;;;;;;;;;;;;4955579;29;20350;-76
2023/11/18 07:00:30;;;;;;;;;;;;;;;;;;4971718;28;19918;-77
2023/11/18 07:02:55;;;;;;;;;;;;;;;;;;4955313;29;20287;-77
2023/11/18 07:05:23;;;;;;;;;;;;;;;;;;4955519;29;19919;-76
2023/11/18 07:07:49;;;;;;;;;;;;;;;;;;4957058;29;20298;-77
2023/11/18 07:10:14;;;;;;;;;;;;;;;;;;4956815;29;19919;-76
2023/11/18 07:12:40;;;;;;;;;;;;;;;;;;4955304;28;19915;-76
2023/11/18 07:15:05;;;;;;;;;;;;;;;;;;4958706;29;19914;-75
2023/11/18 07:17:31;;;;;;;;;;;;;;;;;;4961316;29;19917;-76
2023/11/18 07:19:56;;;;;;;;;;;;;;;;;;4928000;29;19914;-76
2023/11/18 07:22:22;;;;;;;;;;;;;;;;;;4945719;29;19921;-77
2023/11/18 07:24:47;;;;;;;;;;;;;;;;;;4946687;29;19911;-76
2023/11/18 07:27:16;;;;;;;;;;;;;;;;;;4978556;28;19915;-76
2023/11/18 07:29:42;;;;;;;;;;;;;;;;;;4944557;29;20331;-75
2023/11/18 07:32:10;;;;;;;;;;;;;;;;;;4925300;29;19925;-76
2023/11/18 07:34:36;;;;;;;;;;;;;;;;;;4940862;29;19918;-76
2023/11/18 07:37:01;;;;;;;;;;;;;;;;;;4924813;29;20031;-77
2023/11/18 07:39:43;;;;;;;;;;;;;;;;;;4973287;28;20306;-76
2023/11/18 07:42:09;;;;;;;;;;;;;;;;;;4956149;28;19919;-77
2023/11/18 07:44:34;;;;;;;;;;;;;;;;;;4939657;29;19922;-77
2023/11/18 07:46:59;;;;;;;;;;;;;;;;;;4957870;29;19915;-76
2023/11/18 07:49:26;;;;;;;;;;;;;;;;;;4942671;29;19919;-77
2023/11/18 07:51:51;;;;;;;;;;;;;;;;;;4942102;29;20009;-78
2023/11/18 07:54:18;;;;;;;;;;;;;;;;;;4940916;29;19968;-77
2023/11/18 07:56:46;;;;;;;;;;;;;;;;;;4943301;29;19918;-76
2023/11/18 07:59:15;;;;;;;;;;;;;;;;;;4934097;29;19986;-76
2023/11/18 08:01:46;;;;;;;;;;;;;;;;;;4953099;29;20409;-77
2023/11/18 08:04:11;;;;;;;;;;;;;;;;;;4957648;29;19914;-77
2023/11/18 08:06:37;;;;;;;;;;;;;;;;;;4956948;29;19925;-77
2023/11/18 08:09:02;;;;;;;;;;;;;;;;;;4926648;29;20436;-78
2023/11/18 08:11:29;;;;;;;;;;;;;;;;;;4956034;29;19946;-77
2023/11/18 08:13:54;;;;;;;;;;;;;;;;;;4939597;29;19915;-78
2023/11/18 08:16:22;;;;;;;;;;;;;;;;;;4956044;29;20366;-78
2023/11/18 08:18:50;;;;;;;;;;;;;;;;;;4938460;29;19915;-77
2023/11/18 08:21:16;;;;;;;;;;;;;;;;;;4924238;28;19996;-78
2023/11/18 08:23:41;;;;;;;;;;;;;;;;;;4955458;29;19910;-78
2023/11/18 08:26:10;;;;;;;;;;;;;;;;;;4923712;29;19914;-78
2023/11/18 08:28:35;;;;;;;;;;;;;;;;;;4938972;29;19910;-77
2023/11/18 08:31:01;;;;;;;;;;;;;;;;;;4955349;28;20098;-77
2023/11/18 08:33:28;;;;;;;;;;;;;;;;;;4939562;29;19969;-77
2023/11/18 08:35:57;;;;;;;;;;;;;;;;;;4954202;29;19921;-77
2023/11/18 08:38:22;;;;;;;;;;;;;;;;;;4955923;28;19914;-76
2023/11/18 08:40:48;;;;;;;;;;;;;;;;;;4938528;29;20351;-77
2023/11/18 08:43:16;;;;;;;;;;;;;;;;;;4922650;29;19922;-79
2023/11/18 08:45:41;;;;;;;;;;;;;;;;;;4938841;29;19915;-77
2023/11/18 08:48:07;;;;;;;;;;;;;;;;;;4954427;29;19914;-78
2023/11/18 08:50:33;;;;;;;;;;;;;;;;;;4954485;29;20294;-78
2023/11/18 08:52:58;;;;;;;;;;;;;;;;;;4952491;28;19925;-78
2023/11/18 08:55:38;;;;;;;;;;;;;;;;;;4939059;29;19914;-78
2023/11/18 08:58:15;;;;;;;;;;;;;;;;;;4956880;28;19914;-78
2023/11/18 09:00:53;;;;;;;;;;;;;;;;;;4955002;28;19922;-78
2023/11/18 09:03:24;;;;;;;;;;;;;;;;;;4956155;29;20306;-79
2023/11/18 09:05:59;;;;;;;;;;;;;;;;;;4971825;28;19922;-78
2023/11/18 09:08:25;;;;;;;;;;;;;;;;;;4939919;29;20343;-78
2023/11/18 09:10:54;;;;;;;;;;;;;;;;;;4943318;29;19929;-78
2023/11/18 09:13:21;;;;;;;;;;;;;;;;;;4957872;29;19966;-77
2023/11/18 09:15:47;;;;;;;;;;;;;;;;;;4959825;29;20326;-77
2023/11/18 09:18:12;;;;;;;;;;;;;;;;;;4959737;29;19942;-78
2023/11/18 09:20:39;;;;;;;;;;;;;;;;;;4959034;29;19937;-77
2023/11/18 09:23:06;;;;;;;;;;;;;;;;;;4962288;28;19918;-77
2023/11/18 09:25:32;;;;;;;;;;;;;;;;;;4945094;29;19914;-77
2023/11/18 09:28:01;;;;;;;;;;;;;;;;;;4957401;29;19921;-79
2023/11/18 09:30:29;;;;;;;;;;;;;;;;;;4972819;28;19985;-77
2023/11/18 09:32:55;;;;;;;;;;;;;;;;;;4957518;28;19922;-77
2023/11/18 09:35:21;;;;;;;;;;;;;;;;;;4969959;28;20427;-77
2023/11/18 09:37:46;;;;;;;;;;;;;;;;;;4953841;29;19914;-78
2023/11/18 09:40:12;;;;;;;;;;;;;;;;;;4941625;29;19942;-77
2023/11/18 09:42:38;;;;;;;;;;;;;;;;;;4937952;29;19919;-78
2023/11/18 09:45:13;;;;;;;;;;;;;;;;;;4924130;29;19914;-78
2023/11/18 09:47:39;;;;;;;;;;;;;;;;;;4925194;29;19925;-78
2023/11/18 09:50:05;;;;;;;;;;;;;;;;;;4955749;29;19934;-78
2023/11/18 09:52:31;;;;;;;;;;;;;;;;;;4955138;28;19919;-78
2023/11/18 09:54:57;;;;;;;;;;;;;;;;;;4923715;29;19954;-77
2023/11/18 09:57:22;;;;;;;;;;;;;;;;;;4926391;29;19925;-77
2023/11/18 09:59:53;;;;;;;;;;;;;;;;;;4944979;29;19915;-77
2023/11/18 10:02:18;;;;;;;;;;;;;;;;;;4926756;29;19915;-77
2023/11/18 10:04:49;;;;;;;;;;;;;;;;;;4929310;29;19922;-77
2023/11/18 10:07:19;;;;;;;;;;;;;;;;;;4932785;29;19922;-78
2023/11/18 10:09:45;;;;;;;;;;;;;;;;;;4980692;28;20014;-77
2023/11/18 10:12:16;;;;;;;;;;;;;;;;;;4979750;28;19918;-77
2023/11/18 10:14:43;;;;;;;;;;;;;;;;;;4960666;29;20328;-78
2023/11/18 10:17:09;;;;;;;;;;;;;;;;;;4974417;28;19970;-77
2023/11/18 10:19:35;;;;;;;;;;;;;;;;;;4941034;29;19914;-78
2023/11/18 10:22:01;;;;;;;;;;;;;;;;;;4956182;28;19915;-78
2023/11/18 10:24:26;;;;;;;;;;;;;;;;;;4958680;29;19922;-78
2023/11/18 10:26:58;;;;;;;;;;;;;;;;;;4959475;28;19911;-79
2023/11/18 10:29:23;;;;;;;;;;;;;;;;;;4957943;29;19915;-78
2023/11/18 10:31:49;;;;;;;;;;;;;;;;;;4957706;28;20012;-77
2023/11/18 10:34:18;;;;;;;;;;;;;;;;;;4940548;29;19974;-77
2023/11/18 10:36:43;;;;;;;;;;;;;;;;;;4956780;29;19958;-77
2023/11/18 10:39:13;;;;;;;;;;;;;;;;;;4924926;29;19918;-78
2023/11/18 10:41:42;;;;;;;;;;;;;;;;;;4940547;29;19985;-77
2023/11/18 10:44:13;;;;;;;;;;;;;;;;;;4939994;29;19914;-78
2023/11/18 10:46:40;;;;;;;;;;;;;;;;;;4956313;29;19918;-78
2023/11/18 10:49:09;;;;;;;;;;;;;;;;;;4922840;29;19915;-78
2023/11/18 10:51:35;;;;;;;;;;;;;;;;;;4936427;29;19977;-78
2023/11/18 10:54:03;;;;;;;;;;;;;;;;;;4951629;28;19915;-78
2023/11/18 10:56:29;;;;;;;;;;;;;;;;;;4955638;29;20469;-77
2023/11/18 10:58:55;;;;;;;;;;;;;;;;;;4957132;28;19939;-76
2023/11/18 11:01:22;;;;;;;;;;;;;;;;;;4953643;29;20364;-78
2023/11/18 11:03:49;;;;;;;;;;;;;;;;;;4956077;29;19914;-78
2023/11/18 11:06:14;;;;;;;;;;;;;;;;;;4953265;29;19929;-78
2023/11/18 11:08:39;;;;;;;;;;;;;;;;;;4954231;28;19914;-78
2023/11/18 11:11:07;;;;;;;;;;;;;;;;;;4954221;28;19914;-78
2023/11/18 11:13:33;;;;;;;;;;;;;;;;;;4958265;28;20378;-78
2023/11/18 11:16:05;;;;;;;;;;;;;;;;;;4940582;29;20422;-77
2023/11/18 11:18:36;;;;;;;;;;;;;;;;;;4940610;29;19970;-78
2023/11/18 11:21:03;;;;;;;;;;;;;;;;;;4951657;28;19975;-78
2023/11/18 11:23:32;;;;;;;;;;;;;;;;;;4938611;29;20333;-78
2023/11/18 11:25:58;;;;;;;;;;;;;;;;;;4924020;29;20012;-78
2023/11/18 11:28:24;;;;;;;;;;;;;;;;;;4924389;29;19917;-77
2023/11/18 11:30:49;;;;;;;;;;;;;;;;;;4943053;28;20333;-78
2023/11/18 11:33:16;;;;;;;;;;;;;;;;;;4959036;28;19974;-78
2023/11/18 11:35:44;;;;;;;;;;;;;;;;;;4960667;28;19964;-77
2023/11/18 11:38:13;;;;;;;;;;;;;;;;;;4957774;29;19918;-77
2023/11/18 11:40:38;;;;;;;;;;;;;;;;;;4943034;29;19910;-77
2023/11/18 11:43:04;;;;;;;;;;;;;;;;;;4958441;28;19985;-77
2023/11/18 11:45:30;;;;;;;;;;;;;;;;;;4957825;29;19921;-77
2023/11/18 11:48:12;;;;;;;;;;;;;;;;;;4957217;29;19915;-77
2023/11/18 11:50:38;;;;;;;;;;;;;;;;;;4940250;28;19966;-77
2023/11/18 11:53:07;;;;;;;;;;;;;;;;;;4942832;28;20037;-77
2023/11/18 11:55:32;;;;;;;;;;;;;;;;;;4922833;29;19970;-77
2023/11/18 11:57:58;;;;;;;;;;;;;;;;;;4962771;28;19915;-78
2023/11/18 12:00:25;;;;;;;;;;;;;;;;;;4956118;28;19915;-77
2023/11/18 12:02:54;;;;;;;;;;;;;;;;;;4940284;29;19953;-78
2023/11/18 12:05:24;;;;;;;;;;;;;;;;;;4954321;29;19930;-78
2023/11/18 12:07:50;;;;;;;;;;;;;;;;;;4923094;29;19919;-77
2023/11/18 12:10:21;;;;;;;;;;;;;;;;;;4955121;28;19925;-78
2023/11/18 12:12:52;;;;;;;;;;;;;;;;;;4953936;29;19919;-78
2023/11/18 12:15:20;;;;;;;;;;;;;;;;;;4955118;29;19969;-77
2023/11/18 12:17:45;;;;;;;;;;;;;;;;;;4954032;29;20005;-78
2023/11/18 12:20:18;;;;;;;;;;;;;;;;;;4968535;28;20410;-78
2023/11/18 12:22:43;;;;;;;;;;;;;;;;;;4949228;28;20630;-77
2023/11/18 12:25:14;;;;;;;;;;;;;;;;;;4956989;28;20378;-78
2023/11/18 12:27:40;;;;;;;;;;;;;;;;;;4956462;28;19960;-78
2023/11/18 12:30:09;;;;;;;;;;;;;;;;;;4970872;28;20259;-77
2023/11/18 12:32:35;;;;;;;;;;;;;;;;;;4967246;28;19918;-77
2023/11/18 12:35:00;;;;;;;;;;;;;;;;;;4983690;28;19987;-78
2023/11/18 12:37:26;;;;;;;;;;;;;;;;;;4953465;29;19966;-77
2023/11/18 12:39:52;;;;;;;;;;;;;;;;;;4962725;28;19937;-78
2023/11/18 12:42:20;;;;;;;;;;;;;;;;;;4954343;28;19911;-78
2023/11/18 12:44:45;;;;;;;;;;;;;;;;;;4970345;28;19922;-79
2023/11/18 12:47:14;;;;;;;;;;;;;;;;;;4969997;28;20377;-79
2023/11/18 12:49:42;;;;;;;;;;;;;;;;;;4954557;29;19921;-78
2023/11/18 12:52:10;;;;;;;;;;;;;;;;;;4954065;29;19941;-76
2023/11/18 12:54:43;;;;;;;;;;;;;;;;;;4970129;28;19914;-77
2023/11/18 12:57:09;;;;;;;;;;;;;;;;;;4951687;29;19915;-77
2023/11/18 12:59:35;;;;;;;;;;;;;;;;;;4952034;29;19918;-77
2023/11/18 13:02:03;;;;;;;;;;;;;;;;;;4950841;28;19921;-76
2023/11/18 13:04:31;;;;;;;;;;;;;;;;;;4935555;29;20005;-77
2023/11/18 13:06:57;;;;;;;;;;;;;;;;;;4951105;29;20395;-78
2023/11/18 13:09:28;;;;;;;;;;;;;;;;;;4935415;29;19915;-78
2023/11/18 13:11:56;;;;;;;;;;;;;;;;;;4935837;29;19962;-77
2023/11/18 13:14:21;;;;;;;;;;;;;;;;;;4935560;29;19911;-77
2023/11/18 13:16:46;;;;;;;;;;;;;;;;;;4951994;29;19957;-76
2023/11/18 13:19:14;;;;;;;;;;;;;;;;;;4950728;29;19915;-78
2023/11/18 13:21:40;;;;;;;;;;;;;;;;;;4950619;28;19915;-78
2023/11/18 13:24:08;;;;;;;;;;;;;;;;;;4941897;29;20009;-78
2023/11/18 13:26:33;;;;;;;;;;;;;;;;;;4937364;29;20005;-78
2023/11/18 13:28:59;;;;;;;;;;;;;;;;;;4950978;29;19918;-78
2023/11/18 13:31:24;;;;;;;;;;;;;;;;;;4974423;28;19973;-77
2023/11/18 13:33:50;;;;;;;;;;;;;;;;;;4961657;28;19915;-79
2023/11/18 13:36:15;;;;;;;;;;;;;;;;;;4960693;29;20386;-78
2023/11/18 13:38:44;;;;;;;;;;;;;;;;;;4959814;29;20282;-78
2023/11/18 13:41:12;;;;;;;;;;;;;;;;;;4976698;28;19981;-76
2023/11/18 13:43:38;;;;;;;;;;;;;;;;;;4976683;28;19918;-77
2023/11/18 13:46:04;;;;;;;;;;;;;;;;;;4960668;29;19914;-77
2023/11/18 13:48:30;;;;;;;;;;;;;;;;;;4960781;29;19919;-77
2023/11/18 13:50:55;;;;;;;;;;;;;;;;;;4961523;28;19914;-76
2023/11/18 13:53:21;;;;;;;;;;;;;;;;;;4962834;29;19914;-77
2023/11/18 13:55:48;;;;;;;;;;;;;;;;;;4947093;29;19938;-79
2023/11/18 13:58:16;;;;;;;;;;;;;;;;;;4961884;29;19922;-78
2023/11/18 14:00:42;;;;;;;;;;;;;;;;;;4977618;28;20235;-79
2023/11/18 14:03:11;;;;;;;;;;;;;;;;;;4962470;28;19914;-77
2023/11/18 14:05:37;;;;;;;;;;;;;;;;;;4965726;28;19919;-78
2023/11/18 14:08:08;;;;;;;;;;;;;;;;;;4971922;28;19922;-78
2023/11/18 14:10:38;;;;;;;;;;;;;;;;;;4958215;28;19925;-77
2023/11/18 14:13:05;;;;;;;;;;;;;;;;;;4956586;28;19914;-78
2023/11/18 14:15:31;;;;;;;;;;;;;;;;;;4956808;29;19921;-77
2023/11/18 14:17:57;;;;;;;;;;;;;;;;;;4957058;28;19915;-78
2023/11/18 14:20:23;;;;;;;;;;;;;;;;;;4956756;29;19915;-77
2023/11/18 14:22:49;;;;;;;;;;;;;;;;;;4972800;28;20069;-78
2023/11/18 14:25:14;;;;;;;;;;;;;;;;;;4939333;29;19921;-78
2023/11/18 14:27:41;;;;;;;;;;;;;;;;;;4930598;29;20379;-78
2023/11/18 14:30:16;;;;;;;;;;;;;;;;;;4971363;28;20346;-78
2023/11/18 14:32:41;;;;;;;;;;;;;;;;;;4955643;28;19919;-77
2023/11/18 14:35:09;;;;;;;;;;;;;;;;;;4959434;28;19977;-77
2023/11/18 14:37:35;;;;;;;;;;;;;;;;;;4957874;28;19957;-77
2023/11/18 14:40:04;;;;;;;;;;;;;;;;;;4925501;29;19915;-78
2023/11/18 14:42:32;;;;;;;;;;;;;;;;;;4955819;28;19921;-79
2023/11/18 14:45:08;;;;;;;;;;;;;;;;;;4937799;29;19926;-78
2023/11/18 14:47:33;;;;;;;;;;;;;;;;;;4937913;29;19970;-77
2023/11/18 14:50:05;;;;;;;;;;;;;;;;;;4950828;29;19914;-77
2023/11/18 14:52:36;;;;;;;;;;;;;;;;;;4933958;28;19939;-77
2023/11/18 14:55:04;;;;;;;;;;;;;;;;;;4957268;29;19925;-77
2023/11/18 14:57:29;;;;;;;;;;;;;;;;;;4951751;29;19938;-77
2023/11/18 14:59:59;;;;;;;;;;;;;;;;;;4940308;29;20378;-78
2023/11/18 15:02:24;;;;;;;;;;;;;;;;;;4956047;28;20323;-78
2023/11/18 15:05:05;;;;;;;;;;;;;;;;;;4947275;28;19918;-78
2023/11/18 15:07:32;;;;;;;;;;;;;;;;;;4963971;28;20009;-78
2023/11/18 15:10:00;;;;;;;;;;;;;;;;;;4955919;28;19914;-77
2023/11/18 15:12:26;;;;;;;;;;;;;;;;;;4955427;28;19989;-79
2023/11/18 15:14:51;;;;;;;;;;;;;;;;;;4956750;29;20061;-77
2023/11/18 15:17:17;;;;;;;;;;;;;;;;;;4971446;28;19914;-78
2023/11/18 15:19:45;;;;;;;;;;;;;;;;;;4957029;28;20005;-77
2023/11/18 15:22:11;;;;;;;;;;;;;;;;;;4939524;29;19973;-77
2023/11/18 15:24:36;;;;;;;;;;;;;;;;;;4955725;29;19914;-77
2023/11/18 15:27:03;;;;;;;;;;;;;;;;;;4971923;28;19915;-77
2023/11/18 15:29:33;;;;;;;;;;;;;;;;;;4971790;28;19943;-77
2023/11/18 15:31:59;;;;;;;;;;;;;;;;;;4927125;29;19922;-78
2023/11/18 15:34:25;;;;;;;;;;;;;;;;;;4955229;29;19958;-77
2023/11/18 15:36:51;;;;;;;;;;;;;;;;;;4954919;29;19958;-77
2023/11/18 15:39:17;;;;;;;;;;;;;;;;;;4938516;29;19982;-77
2023/11/18 15:41:42;;;;;;;;;;;;;;;;;;4972325;28;19970;-77
2023/11/18 15:44:08;;;;;;;;;;;;;;;;;;4956054;28;19919;-79
2023/11/18 15:46:37;;;;;;;;;;;;;;;;;;4956349;28;19962;-78
2023/11/18 15:49:03;;;;;;;;;;;;;;;;;;4953776;28;19926;-78
2023/11/18 15:51:31;;;;;;;;;;;;;;;;;;4970077;28;19919;-78
2023/11/18 15:53:56;;;;;;;;;;;;;;;;;;4970158;28;20354;-78
2023/11/18 15:56:22;;;;;;;;;;;;;;;;;;4953749;29;19970;-78
2023/11/18 15:58:47;;;;;;;;;;;;;;;;;;4955038;28;20011;-78
2023/11/18 16:01:17;;;;;;;;;;;;;;;;;;4954785;28;19921;-78
2023/11/18 16:03:43;;;;;;;;;;;;;;;;;;4956055;29;19918;-78
2023/11/18 16:06:10;;;;;;;;;;;;;;;;;;4919823;29;20011;-78
2023/11/18 16:08:36;;;;;;;;;;;;;;;;;;4951887;29;20063;-78
2023/11/18 16:11:02;;;;;;;;;;;;;;;;;;4938843;28;20256;-77
2023/11/18 16:13:28;;;;;;;;;;;;;;;;;;4955107;29;19957;-77
2023/11/18 16:15:53;;;;;;;;;;;;;;;;;;4955949;29;19915;-77
2023/11/18 16:18:19;;;;;;;;;;;;;;;;;;4955069;29;19973;-76
2023/11/18 16:20:45;;;;;;;;;;;;;;;;;;4955238;28;19915;-78
2023/11/18 16:23:10;;;;;;;;;;;;;;;;;;4939766;29;19915;-77
2023/11/18 16:25:37;;;;;;;;;;;;;;;;;;4970660;28;20350;-77
2023/11/18 16:28:02;;;;;;;;;;;;;;;;;;4956137;29;19911;-78
2023/11/18 16:30:32;;;;;;;;;;;;;;;;;;4945518;29;19929;-79
2023/11/18 16:32:57;;;;;;;;;;;;;;;;;;4943943;29;19922;-78
2023/11/18 16:35:23;;;;;;;;;;;;;;;;;;4939392;29;19919;-77
2023/11/18 16:37:49;;;;;;;;;;;;;;;;;;4921053;29;19980;-77
2023/11/18 16:40:14;;;;;;;;;;;;;;;;;;4952767;29;19960;-77
2023/11/18 16:42:40;;;;;;;;;;;;;;;;;;4952449;29;19938;-76